Time;durP1;ratioP1;P1;durP2;ratioP2;P2;SDS_P1;SDS_P2;PMS_P1;PMS_P2;Temp;Humidity;BMP_temperature;BMP_pressure;BME280_temperature;BME280_humidity;BME280_pressure;Samples;Min_cycle;Max_cycle;Signal;HPM_P1;HPM_P2
2022/01/17 10:12:41;;;;;;;10.80;10.30;;;7.70;99.90;;;;;;5107481;27;21063;-74
2022/01/17 10:15:15;;;;;;;11.67;11.07;;;8.50;99.90;;;;;;5107140;28;20433;-75
2022/01/17 10:17:47;;;;;;;11.40;10.80;;;8.40;99.90;;;;;;5107304;28;20541;-75
2022/01/17 10:20:17;;;;;;;11.90;11.30;;;8.70;99.90;;;;;;5106615;28;20990;-75
2022/01/17 10:22:52;;;;;;;10.17;9.77;;;8.80;99.90;;;;;;5106885;28;20441;-74
2022/01/17 10:25:38;;;;;;;11.50;10.80;;;8.90;99.90;;;;;;5106602;28;20440;-74
2022/01/17 10:28:43;;;;;;;11.47;10.90;;;8.80;99.90;;;;;;5106553;28;20458;-73
2022/01/17 10:36:52;;;;;;;11.03;10.43;;;8.80;99.90;;;;;;5106593;28;20532;-75
2022/01/17 10:39:19;;;;;;;10.77;10.23;;;8.80;99.90;;;;;;5106558;28;20875;-74
2022/01/17 10:41:46;;;;;;;11.80;11.20;;;8.90;99.90;;;;;;5106629;28;20845;-75
2022/01/17 10:44:33;;;;;;;12.13;10.93;;;8.80;99.90;;;;;;5106568;28;20453;-75
2022/01/17 10:47:24;;;;;;;11.07;10.60;;;8.70;99.90;;;;;;5106366;28;20453;-76
2022/01/17 10:49:53;;;;;;;10.93;10.43;;;8.60;99.90;;;;;;5106630;28;20867;-75
2022/01/17 10:52:46;;;;;;;13.20;12.50;;;8.60;99.90;;;;;;5106263;28;20476;-76
2022/01/17 10:55:15;;;;;;;13.30;12.60;;;8.40;99.90;;;;;;5091976;28;20462;-75
2022/01/17 10:57:46;;;;;;;13.37;12.67;;;8.00;99.90;;;;;;5106357;28;20490;-75
2022/01/17 11:00:16;;;;;;;12.33;11.63;;;7.40;99.90;;;;;;5106298;28;20442;-75
2022/01/17 11:02:46;;;;;;;11.80;11.20;;;7.10;99.90;;;;;;5106000;28;20463;-74
2022/01/17 11:05:14;;;;;;;13.33;12.53;;;7.00;99.90;;;;;;5106225;28;20456;-76
2022/01/17 11:07:42;;;;;;;12.50;11.80;;;7.00;99.90;;;;;;5106182;28;20452;-74
2022/01/17 11:10:19;;;;;;;14.23;13.33;;;7.00;99.90;;;;;;5106272;28;20491;-74
2022/01/17 11:12:46;;;;;;;13.23;12.33;;;6.80;99.90;;;;;;5097310;28;20540;-74
2022/01/17 11:15:15;;;;;;;12.83;12.13;;;6.90;99.90;;;;;;5092400;28;20435;-74
2022/01/17 11:17:49;;;;;;;13.90;12.90;;;6.90;99.90;;;;;;5092279;28;20490;-74
2022/01/17 11:20:17;;;;;;;13.07;12.30;;;6.90;99.90;;;;;;5092198;28;20951;-74
2022/01/17 11:22:46;;;;;;;13.17;12.37;;;7.00;99.90;;;;;;5092115;28;20492;-74
2022/01/17 11:25:15;;;;;;;13.13;12.37;;;7.10;99.90;;;;;;5092231;28;20803;-75
2022/01/17 11:27:42;;;;;;;12.80;12.10;;;7.10;99.90;;;;;;5091856;28;20936;-75
2022/01/17 11:30:11;;;;;;;13.80;12.97;;;7.20;99.90;;;;;;5092159;28;20447;-75
2022/01/17 11:32:39;;;;;;;13.53;12.53;;;7.40;99.90;;;;;;5092211;28;20803;-75
2022/01/17 11:35:07;;;;;;;12.70;11.60;;;7.50;99.90;;;;;;5091847;28;20442;-75
2022/01/17 11:37:36;;;;;;;12.80;12.10;;;7.60;99.90;;;;;;5091870;28;20449;-75
2022/01/17 11:40:04;;;;;;;13.20;12.10;;;7.50;99.90;;;;;;5091855;28;20803;-75
2022/01/17 11:42:38;;;;;;;12.63;11.90;;;7.40;99.90;;;;;;5091796;28;20935;-75
2022/01/17 11:45:32;;;;;;;13.63;12.53;;;7.40;99.90;;;;;;5091775;28;20943;-75
2022/01/17 11:48:01;;;;;;;13.33;12.53;;;7.40;99.90;;;;;;5091615;28;20453;-75
2022/01/17 11:50:49;;;;;;;16.10;14.93;;;7.40;99.90;;;;;;5091605;28;20456;-75
2022/01/17 11:53:43;;;;;;;18.23;17.20;;;7.30;99.90;;;;;;5091635;28;20936;-75
2022/01/17 11:56:10;;;;;;;19.90;18.50;;;7.10;99.90;;;;;;5091891;28;20456;-73
2022/01/17 11:58:41;;;;;;;20.97;19.53;;;7.00;99.90;;;;;;5091965;28;20549;-74
2022/01/17 12:01:18;;;;;;;17.43;16.30;;;7.10;99.90;;;;;;5091808;28;20940;-73
2022/01/17 12:03:49;;;;;;;15.80;15.00;;;7.30;99.90;;;;;;5091253;28;20464;-73
2022/01/17 12:06:28;;;;;;;16.10;15.20;;;7.40;99.90;;;;;;5091336;28;20474;-74
2022/01/17 12:09:29;;;;;;;15.70;14.80;;;7.50;99.90;;;;;;5091581;28;20445;-74
2022/01/17 12:12:15;;;;;;;15.17;14.30;;;7.50;99.90;;;;;;5028887;28;20545;-74
2022/01/17 12:14:53;;;;;;;13.63;12.90;;;7.40;99.90;;;;;;5028752;28;20507;-75
2022/01/17 12:17:31;;;;;;;12.90;12.27;;;7.50;99.90;;;;;;5069823;28;20537;-75
2022/01/17 12:20:19;;;;;;;12.63;11.90;;;7.60;99.90;;;;;;5090997;28;20537;-75
2022/01/17 12:22:52;;;;;;;13.70;12.90;;;7.60;99.90;;;;;;5090933;28;20554;-73
2022/01/17 12:25:34;;;;;;;12.83;12.00;;;7.80;99.90;;;;;;5089851;28;20531;-75
2022/01/17 12:28:25;;;;;;;11.77;11.27;;;7.90;99.90;;;;;;5090868;28;20453;-75
2022/01/17 12:30:54;;;;;;;12.40;11.70;;;7.90;99.90;;;;;;5091043;28;20491;-76
2022/01/17 12:33:37;;;;;;;11.20;10.70;;;7.70;99.90;;;;;;5090999;28;20450;-74
2022/01/17 12:36:27;;;;;;;10.87;10.27;;;7.60;99.90;;;;;;5090809;28;20819;-74
2022/01/17 12:39:10;;;;;;;11.07;10.27;;;7.60;99.90;;;;;;5091011;28;20956;-74
2022/01/17 12:41:39;;;;;;;11.37;10.57;;;7.60;99.90;;;;;;5090714;28;20539;-77
2022/01/17 12:44:16;;;;;;;11.87;11.27;;;7.60;99.90;;;;;;5090486;28;20443;-76
2022/01/17 12:46:43;;;;;;;12.20;11.60;;;7.70;99.90;;;;;;5090409;28;20462;-75
2022/01/17 12:49:11;;;;;;;12.13;11.37;;;7.80;99.90;;;;;;5090567;28;20450;-76
2022/01/17 12:51:42;;;;;;;12.97;12.07;;;7.80;99.90;;;;;;5090303;28;20485;-76
2022/01/17 12:54:13;;;;;;;11.23;10.73;;;7.90;99.90;;;;;;5090782;28;20458;-75
2022/01/17 12:56:44;;;;;;;11.23;10.70;;;7.80;99.90;;;;;;5090792;28;20449;-76
2022/01/17 12:59:12;;;;;;;11.60;11.00;;;7.90;99.90;;;;;;5090433;28;21156;-75
2022/01/17 13:01:45;;;;;;;11.50;10.80;;;7.90;99.90;;;;;;5090527;28;20448;-75
2022/01/17 13:04:12;;;;;;;11.40;10.67;;;7.80;99.90;;;;;;5090117;28;20487;-76
2022/01/17 13:06:41;;;;;;;10.73;10.13;;;7.70;99.90;;;;;;5090584;28;20511;-75
2022/01/17 13:09:13;;;;;;;10.47;9.97;;;7.80;99.90;;;;;;5090379;28;20477;-75
2022/01/17 13:11:42;;;;;;;10.73;10.13;;;7.80;99.90;;;;;;5090065;28;20490;-74
2022/01/17 13:14:09;;;;;;;12.20;11.50;;;7.80;99.90;;;;;;5090453;28;20863;-75
2022/01/17 13:16:38;;;;;;;13.83;13.00;;;7.80;99.90;;;;;;5089904;28;20446;-75
2022/01/17 13:19:07;;;;;;;11.70;11.20;;;8.00;99.90;;;;;;5089942;28;20455;-74
2022/01/17 13:21:34;;;;;;;11.00;10.50;;;8.00;99.90;;;;;;5089883;28;20445;-75
2022/01/17 13:24:11;;;;;;;9.83;9.13;;;8.00;99.90;;;;;;5089808;28;20460;-75
2022/01/17 13:26:41;;;;;;;10.23;9.70;;;8.00;99.90;;;;;;5090160;28;20456;-75
2022/01/17 13:29:09;;;;;;;10.97;10.17;;;7.90;99.90;;;;;;5090031;28;20461;-73
2022/01/17 13:31:36;;;;;;;11.10;10.10;;;7.90;99.90;;;;;;5089709;28;21062;-74
2022/01/17 13:34:12;;;;;;;11.43;10.63;;;8.00;99.90;;;;;;5089418;28;20591;-74
2022/01/17 13:36:39;;;;;;;10.97;10.47;;;7.90;99.90;;;;;;5089474;28;20450;-76
2022/01/17 13:39:10;;;;;;;10.13;9.53;;;8.00;99.90;;;;;;5089711;28;20461;-76
2022/01/17 13:41:39;;;;;;;10.83;10.33;;;8.00;99.90;;;;;;5089961;28;20447;-75
2022/01/17 13:44:06;;;;;;;9.97;9.57;;;8.00;99.90;;;;;;5089481;28;20805;-75
2022/01/17 13:46:37;;;;;;;11.57;10.67;;;8.10;99.90;;;;;;5089411;28;20450;-74
2022/01/17 13:49:04;;;;;;;12.40;11.60;;;8.20;99.90;;;;;;5089408;28;20454;-75
2022/01/17 13:51:31;;;;;;;9.33;8.83;;;8.10;99.90;;;;;;5089412;28;20482;-74
2022/01/17 13:53:58;;;;;;;10.63;10.13;;;8.10;99.90;;;;;;5089259;28;20523;-75
2022/01/17 13:56:32;;;;;;;10.70;10.00;;;8.10;99.90;;;;;;5089662;28;20449;-75
2022/01/17 13:58:59;;;;;;;11.33;10.53;;;8.10;99.90;;;;;;5089340;28;20446;-74
2022/01/17 14:01:33;;;;;;;10.10;9.43;;;8.00;99.90;;;;;;5089399;28;20449;-75
2022/01/17 14:04:03;;;;;;;9.17;8.73;;;8.00;99.90;;;;;;5088997;28;20485;-74
2022/01/17 14:06:31;;;;;;;9.83;9.43;;;8.10;99.90;;;;;;5089190;28;20497;-75
2022/01/17 14:08:59;;;;;;;8.87;8.50;;;8.20;99.90;;;;;;5089326;28;20454;-75
2022/01/17 14:11:27;;;;;;;9.70;9.20;;;8.30;99.90;;;;;;5089227;28;20687;-74
2022/01/17 14:13:58;;;;;;;9.60;9.20;;;8.50;99.90;;;;;;5089628;28;20452;-75
2022/01/17 14:16:27;;;;;;;9.70;9.20;;;8.70;99.90;;;;;;5089567;28;20489;-75
2022/01/17 14:18:55;;;;;;;9.33;9.00;;;8.90;99.90;;;;;;5089547;28;20450;-76
2022/01/17 14:21:30;;;;;;;10.10;9.40;;;8.80;99.90;;;;;;5089343;28;20469;-74
2022/01/17 14:24:09;;;;;;;10.20;9.17;;;8.80;99.90;;;;;;5089205;28;20941;-74
2022/01/17 14:26:40;;;;;;;9.03;8.63;;;8.60;99.90;;;;;;5089243;28;20452;-76
2022/01/17 14:29:10;;;;;;;9.70;9.30;;;8.40;99.90;;;;;;5089332;28;20468;-74
2022/01/17 14:31:39;;;;;;;9.67;9.17;;;8.50;99.90;;;;;;5089099;28;20477;-75
2022/01/17 14:34:11;;;;;;;9.87;9.10;;;8.40;99.90;;;;;;5088964;28;20456;-76
2022/01/17 14:36:38;;;;;;;11.50;10.80;;;8.40;99.90;;;;;;5089151;28;20510;-76
2022/01/17 14:39:05;;;;;;;8.97;8.57;;;8.50;99.90;;;;;;5089038;28;20453;-76
2022/01/17 14:41:35;;;;;;;8.63;8.33;;;8.20;99.90;;;;;;5089044;28;20454;-75
2022/01/17 14:44:05;;;;;;;9.20;8.90;;;8.20;99.90;;;;;;5088920;28;21266;-76
2022/01/17 14:46:32;;;;;;;10.30;9.80;;;8.20;99.90;;;;;;5088892;28;20723;-75
2022/01/17 14:48:59;;;;;;;10.00;9.50;;;8.20;99.90;;;;;;5092646;28;20457;-76
2022/01/17 14:51:28;;;;;;;10.17;9.60;;;8.20;99.90;;;;;;5092846;28;20449;-74
2022/01/17 14:53:58;;;;;;;8.87;8.47;;;8.00;99.90;;;;;;5092961;28;20454;-76
2022/01/17 14:59:33;;;;;;;10.50;10.00;;;8.00;99.90;;;;;;5092877;28;20418;-76
2022/01/17 15:02:07;;;;;;;10.20;9.70;;;7.80;99.90;;;;;;5092587;28;20449;-75
2022/01/17 15:04:38;;;;;;;10.43;9.83;;;7.80;99.90;;;;;;5092547;28;20813;-76
2022/01/17 15:07:05;;;;;;;9.40;9.00;;;7.70;99.90;;;;;;5092583;28;20476;-76
2022/01/17 15:09:32;;;;;;;9.70;9.20;;;7.70;99.90;;;;;;5092254;28;20960;-77
2022/01/17 15:12:00;;;;;;;9.90;9.40;;;7.80;99.90;;;;;;5092085;28;20494;-76
2022/01/17 15:14:28;;;;;;;11.47;10.50;;;7.70;99.90;;;;;;5092288;28;20453;-76
2022/01/17 15:16:55;;;;;;;11.83;10.90;;;7.70;99.90;;;;;;5092489;28;20943;-78
2022/01/17 15:19:22;;;;;;;10.03;9.53;;;7.70;99.90;;;;;;5092554;28;20448;-76
2022/01/17 15:21:49;;;;;;;10.57;10.07;;;7.60;99.90;;;;;;5092176;28;20442;-76
2022/01/17 15:24:16;;;;;;;9.53;9.10;;;7.50;99.90;;;;;;5092219;28;20597;-75
2022/01/17 15:26:42;;;;;;;10.57;10.17;;;7.50;99.90;;;;;;5092213;28;20478;-76
2022/01/17 15:29:13;;;;;;;10.03;9.33;;;7.50;99.90;;;;;;5092236;28;20483;-75
2022/01/17 15:31:46;;;;;;;10.27;9.70;;;7.50;99.90;;;;;;5092338;28;20476;-75
2022/01/17 15:34:13;;;;;;;11.17;10.47;;;7.60;99.90;;;;;;5092135;28;20500;-76
2022/01/17 15:36:39;;;;;;;11.27;10.43;;;7.50;99.90;;;;;;5092235;28;20967;-76
2022/01/17 15:39:06;;;;;;;11.60;11.00;;;7.40;99.90;;;;;;5091885;28;20448;-75
2022/01/17 15:41:33;;;;;;;106.60;28.87;;;7.40;99.90;;;;;;5091991;28;20461;-76
2022/01/17 15:43:59;;;;;;;10.60;10.00;;;7.40;99.90;;;;;;5092136;28;20459;-76
2022/01/17 15:46:29;;;;;;;11.57;11.07;;;7.40;99.90;;;;;;5091872;28;20456;-75
2022/01/17 15:48:57;;;;;;;12.00;11.40;;;7.40;99.90;;;;;;5091939;28;20459;-76
2022/01/17 15:51:24;;;;;;;11.60;10.83;;;7.40;99.90;;;;;;5091774;28;20453;-76
2022/01/17 15:53:51;;;;;;;11.67;11.07;;;7.30;99.90;;;;;;5091534;28;20498;-76
2022/01/17 15:56:18;;;;;;;12.60;12.00;;;7.20;99.90;;;;;;5091493;28;20442;-76
2022/01/17 15:58:45;;;;;;;11.83;11.33;;;7.10;99.90;;;;;;5091144;28;20446;-75
2022/01/17 16:01:12;;;;;;;12.90;12.20;;;7.10;99.90;;;;;;5091515;28;20448;-76
2022/01/17 16:03:38;;;;;;;10.77;10.17;;;7.10;99.90;;;;;;5091422;28;20971;-75
2022/01/17 16:06:08;;;;;;;11.07;10.47;;;7.10;99.90;;;;;;5091312;28;20848;-76
2022/01/17 16:08:37;;;;;;;11.53;10.93;;;7.10;99.90;;;;;;5091195;28;20453;-76
2022/01/17 16:11:04;;;;;;;10.03;9.53;;;7.10;99.90;;;;;;5091093;28;20575;-75
2022/01/17 16:13:31;;;;;;;11.60;10.70;;;7.00;99.90;;;;;;5091100;28;20488;-76
2022/01/17 16:15:58;;;;;;;9.90;9.37;;;7.10;99.90;;;;;;5091198;28;20446;-75
2022/01/17 16:18:25;;;;;;;11.80;11.00;;;7.10;99.90;;;;;;5091394;28;20448;-75
2022/01/17 16:20:52;;;;;;;10.33;9.73;;;7.00;99.90;;;;;;5091178;28;20447;-75
2022/01/17 16:23:21;;;;;;;10.10;9.60;;;7.00;99.90;;;;;;5091095;28;20456;-77
2022/01/17 16:25:48;;;;;;;10.70;10.10;;;7.10;99.90;;;;;;5090966;28;20453;-77
2022/01/17 16:28:15;;;;;;;11.30;10.60;;;7.10;99.90;;;;;;5090973;28;20506;-77
2022/01/17 16:30:42;;;;;;;9.87;9.27;;;7.00;99.90;;;;;;5091105;28;20811;-75
2022/01/17 16:33:11;;;;;;;11.13;10.53;;;7.00;99.90;;;;;;5091067;28;20482;-76
2022/01/17 16:35:38;;;;;;;11.47;10.67;;;7.00;99.90;;;;;;5091119;28;20447;-76
2022/01/17 16:38:04;;;;;;;13.07;12.03;;;7.00;99.90;;;;;;5090709;28;20447;-76
2022/01/17 16:40:33;;;;;;;12.67;11.77;;;7.10;99.90;;;;;;5090866;28;20453;-76
2022/01/17 16:42:59;;;;;;;12.97;12.07;;;7.00;99.90;;;;;;5090710;28;20442;-76
2022/01/17 16:45:26;;;;;;;12.03;11.23;;;7.00;99.90;;;;;;5090976;28;20473;-75
2022/01/17 16:47:53;;;;;;;12.10;11.40;;;7.00;99.90;;;;;;5090971;28;20501;-76
2022/01/17 16:50:23;;;;;;;11.40;10.70;;;7.00;99.90;;;;;;5090725;28;20723;-76
2022/01/17 16:52:50;;;;;;;11.77;11.03;;;6.90;99.90;;;;;;5090465;28;20482;-76
2022/01/17 16:55:16;;;;;;;13.17;12.37;;;7.00;99.90;;;;;;5090543;28;20793;-76
2022/01/17 16:57:45;;;;;;;12.17;11.37;;;6.90;99.90;;;;;;5090510;28;20451;-76
2022/01/17 17:00:13;;;;;;;12.97;12.03;;;6.90;99.90;;;;;;5090462;28;20474;-76
2022/01/17 17:02:41;;;;;;;10.97;10.17;;;6.90;99.90;;;;;;5090614;28;20470;-75
2022/01/17 17:05:08;;;;;;;13.23;12.23;;;6.90;99.90;;;;;;5090520;28;20483;-76
2022/01/17 17:07:35;;;;;;;13.13;12.03;;;7.00;99.90;;;;;;5090285;28;20455;-75
2022/01/17 17:10:02;;;;;;;12.50;11.80;;;7.00;99.90;;;;;;5089821;28;20725;-76
2022/01/17 17:12:28;;;;;;;12.20;11.40;;;6.90;99.90;;;;;;5089830;28;20490;-76
2022/01/17 17:14:56;;;;;;;12.20;11.40;;;6.80;99.90;;;;;;5090447;28;20458;-76
2022/01/17 17:17:23;;;;;;;13.10;12.10;;;6.90;99.90;;;;;;5090345;28;20499;-75
2022/01/17 17:19:50;;;;;;;12.00;11.30;;;6.90;99.90;;;;;;5090041;28;20460;-76
2022/01/17 17:22:17;;;;;;;12.87;11.97;;;6.90;99.90;;;;;;5090013;28;20550;-77
2022/01/17 17:24:45;;;;;;;14.40;13.30;;;6.80;99.90;;;;;;5089889;28;20449;-76
2022/01/17 17:27:12;;;;;;;15.73;13.70;;;6.80;99.90;;;;;;5090012;28;20450;-75
2022/01/17 17:29:39;;;;;;;13.13;12.33;;;6.70;99.90;;;;;;5090233;28;20472;-77
2022/01/17 17:32:08;;;;;;;13.93;13.00;;;6.60;99.90;;;;;;5089926;28;20868;-76
2022/01/17 17:34:35;;;;;;;14.47;13.47;;;6.60;99.90;;;;;;5089842;28;20939;-76
2022/01/17 17:37:02;;;;;;;15.17;14.17;;;6.50;99.90;;;;;;5089694;28;20446;-76
2022/01/17 17:39:30;;;;;;;16.17;14.97;;;6.40;99.90;;;;;;5089817;28;20482;-75
2022/01/17 17:41:57;;;;;;;16.20;15.10;;;6.30;99.90;;;;;;5089936;28;20459;-73
2022/01/17 17:44:24;;;;;;;19.57;18.20;;;6.40;99.90;;;;;;5090121;28;20436;-74
2022/01/17 17:46:51;;;;;;;18.83;17.73;;;6.40;99.90;;;;;;5089651;28;20501;-76
2022/01/17 17:49:20;;;;;;;20.10;18.93;;;6.30;99.90;;;;;;5089671;28;20808;-75
2022/01/17 17:51:46;;;;;;;20.30;18.90;;;6.30;99.90;;;;;;5089632;28;20454;-76
2022/01/17 17:54:13;;;;;;;20.10;18.90;;;6.20;99.90;;;;;;5089529;28;20579;-76
2022/01/17 17:56:41;;;;;;;20.43;19.13;;;6.30;99.90;;;;;;5089900;28;20448;-76
2022/01/17 17:59:07;;;;;;;21.40;20.00;;;6.20;99.90;;;;;;5089740;28;20533;-76
